Airport ID:KRTS
Update Time (UTC):16 JAN 18 14:53
Wind Speed (Knots):6
Wind Direction (Magnetic):310
Temperature (°C):4
Dew Point (°C):0
Humidity (%):79
Altimeter (inHg):30.29
Density Altitude (Feet):
Visibility (Miles):10
Clouds (Hundreds of feet):BKN050 OVC060
Present Weather:NO PRECIPITATION
METAR:METAR KRTS 161450Z AUTO 33005KT 10SM BKN060 OVC065 04/00 A3029 RMK AO2

The data displayed is for advisory purposes only and is not to be used for flight planning or operations.

This page is not automatically refreshed. Reload the page to see current data.